Time;durP1;ratioP1;P1;durP2;ratioP2;P2;SDS_P1;SDS_P2;PMS_P1;PMS_P2;Temp;Humidity;BMP_temperature;BMP_pressure;BME280_temperature;BME280_humidity;BME280_pressure;Samples;Min_cycle;Max_cycle;Signal;HPM_P1;HPM_P2
2022/02/28 00:01:23;;;;;;;;;57.00;48.50;;;;;4.47;58.62;102589.22;5091601;27;49985;-64
2022/02/28 00:03:51;;;;;;;;;51.00;43.75;;;;;4.37;58.63;102572.81;5091728;27;49990;-64
2022/02/28 00:06:16;;;;;;;;;49.25;44.00;;;;;4.45;59.03;102584.69;5091617;27;49829;-63
2022/02/28 00:08:41;;;;;;;;;47.75;41.25;;;;;4.44;58.41;102588.06;5091573;27;49715;-64
2022/02/28 00:11:07;;;;;;;;;49.25;43.75;;;;;4.05;58.30;102534.88;5091716;27;49649;-64
2022/02/28 00:13:32;;;;;;;;;49.75;43.00;;;;;4.40;58.51;102601.63;5091685;27;49874;-64
2022/02/28 00:15:58;;;;;;;;;42.25;35.00;;;;;4.37;58.74;102598.81;5091392;27;50366;-64
2022/02/28 00:18:23;;;;;;;;;38.50;37.75;;;;;4.11;59.36;102558.75;5091310;27;49661;-64
2022/02/28 00:20:48;;;;;;;;;32.25;29.50;;;;;4.13;59.02;102561.47;5091584;27;50340;-65
2022/02/28 00:23:14;;;;;;;;;35.25;30.75;;;;;4.32;59.62;102607.16;5091729;27;49632;-65
2022/02/28 00:25:39;;;;;;;;;34.50;30.00;;;;;4.26;59.32;102611.00;5091176;27;50678;-64
2022/02/28 00:28:06;;;;;;;;;35.50;32.75;;;;;4.27;59.84;102605.00;5091366;27;49691;-65
2022/02/28 00:30:33;;;;;;;;;30.00;29.25;;;;;4.29;59.39;102613.81;5072917;27;49857;-65
2022/02/28 00:32:59;;;;;;;;;40.75;35.25;;;;;4.29;59.95;102608.63;5090987;27;49836;-64
2022/02/28 00:35:24;;;;;;;;;34.75;32.75;;;;;4.28;59.30;102615.53;5091028;27;50129;-64
2022/02/28 00:37:50;;;;;;;;;28.25;27.25;;;;;4.24;59.30;102610.88;5091002;27;50551;-64
2022/02/28 00:40:15;;;;;;;;;33.50;29.50;;;;;4.27;59.81;102608.53;5091412;27;49985;-65
2022/02/28 00:42:40;;;;;;;;;30.50;23.50;;;;;4.23;58.78;102608.16;5091196;27;49777;-64
2022/02/28 00:45:07;;;;;;;;;24.75;23.25;;;;;4.10;58.22;102569.94;5091004;27;50410;-63
2022/02/28 00:47:32;;;;;;;;;19.75;18.75;;;;;4.31;58.12;102610.53;5090782;27;49930;-65
2022/02/28 00:49:58;;;;;;;;;27.75;22.75;;;;;4.27;57.42;102599.81;5091208;27;49590;-66
2022/02/28 00:52:23;;;;;;;;;22.25;21.00;;;;;4.34;57.57;102611.56;5090972;27;49816;-65
2022/02/28 00:54:48;;;;;;;;;27.00;22.25;;;;;4.36;57.52;102610.91;5090838;27;50545;-65
2022/02/28 00:57:14;;;;;;;;;25.25;22.75;;;;;4.30;57.74;102610.44;5091075;27;50184;-66
2022/02/28 00:59:39;;;;;;;;;28.75;22.50;;;;;4.30;57.34;102607.84;5090900;27;49523;-63
2022/02/28 01:02:05;;;;;;;;;27.00;24.00;;;;;4.35;57.75;102623.81;5090981;27;49763;-64
2022/02/28 01:04:30;;;;;;;;;23.25;20.75;;;;;4.05;57.35;102575.56;5090751;27;50450;-65
2022/02/28 01:06:55;;;;;;;;;24.25;19.00;;;;;4.20;57.17;102610.53;5090797;27;49704;-64
2022/02/28 01:09:21;;;;;;;;;24.75;24.75;;;;;4.32;58.22;102624.44;5090975;27;49709;-64
2022/02/28 01:11:46;;;;;;;;;27.75;23.75;;;;;4.32;58.05;102625.34;5090792;27;49633;-63
2022/02/28 01:14:11;;;;;;;;;22.25;17.25;;;;;4.31;57.39;102615.75;5090661;27;49734;-63
2022/02/28 01:16:37;;;;;;;;;25.00;22.50;;;;;4.13;57.56;102585.75;5090594;27;49788;-65
2022/02/28 01:19:03;;;;;;;;;27.50;25.00;;;;;4.37;57.69;102628.31;5090497;27;49903;-63
2022/02/28 01:21:29;;;;;;;;;22.50;21.00;;;;;3.93;58.26;102540.06;5090951;27;49824;-63
2022/02/28 01:23:54;;;;;;;;;19.00;19.00;;;;;4.35;57.52;102629.00;5090596;27;50635;-64
2022/02/28 01:26:20;;;;;;;;;21.00;19.75;;;;;4.35;57.46;102631.59;5090377;27;49581;-64
2022/02/28 01:28:45;;;;;;;;;22.50;19.75;;;;;4.35;58.03;102622.09;5090626;27;49845;-64
2022/02/28 01:31:11;;;;;;;;;24.50;23.50;;;;;4.34;58.17;102632.38;5090822;27;49786;-64
2022/02/28 01:33:36;;;;;;;;;26.00;19.50;;;;;4.29;57.41;102619.03;5090115;27;50740;-64
2022/02/28 01:36:02;;;;;;;;;26.25;24.50;;;;;4.34;58.38;102629.75;5090541;27;49654;-67
2022/02/28 01:38:28;;;;;;;;;22.00;20.75;;;;;4.21;58.09;102612.34;5090462;27;49811;-64
2022/02/28 01:40:54;;;;;;;;;22.00;18.50;;;;;4.27;58.88;102621.53;5090460;27;49883;-64
2022/02/28 01:43:19;;;;;;;;;24.50;22.00;;;;;4.06;57.42;102585.22;5090223;27;49944;-64
2022/02/28 01:45:44;;;;;;;;;17.50;14.50;;;;;4.27;57.94;102623.22;5090415;27;49607;-65
2022/02/28 01:48:10;;;;;;;;;23.00;22.25;;;;;4.27;57.50;102620.63;5090205;27;49795;-63
2022/02/28 01:50:35;;;;;;;;;23.25;17.75;;;;;4.25;58.61;102620.50;5090450;27;49982;-68
2022/02/28 01:53:03;;;;;;;;;25.50;20.50;;;;;4.19;57.77;102616.53;5089847;27;50453;-66
2022/02/28 01:55:28;;;;;;;;;27.75;23.75;;;;;3.79;57.69;102556.31;5090200;27;49890;-65
2022/02/28 01:57:54;;;;;;;;;30.75;22.50;;;;;4.14;58.22;102621.34;5090184;27;49926;-68
2022/02/28 02:00:22;;;;;;;;;23.25;19.50;;;;;4.05;58.24;102607.66;5093205;27;49961;-64
2022/02/28 02:02:48;;;;;;;;;22.50;20.50;;;;;4.10;58.47;102616.72;5093260;27;49829;-64
2022/02/28 02:05:14;;;;;;;;;23.75;20.75;;;;;4.09;57.95;102619.22;5093707;27;49785;-67
2022/02/28 02:07:40;;;;;;;;;19.75;19.75;;;;;4.05;58.74;102601.56;5093779;27;49713;-64
2022/02/28 02:10:08;;;;;;;;;23.75;23.50;;;;;3.81;59.48;102565.13;5093758;27;49978;-64
2022/02/28 02:12:34;;;;;;;;;27.00;22.25;;;;;4.09;58.60;102617.53;5093527;27;50030;-67
2022/02/28 02:15:00;;;;;;;;;22.50;20.00;;;;;4.03;59.60;102607.53;5092735;27;49688;-65
2022/02/28 02:17:26;;;;;;;;;25.75;23.00;;;;;3.92;58.89;102595.44;5106713;27;49982;-65
2022/02/28 02:19:53;;;;;;;;;20.75;20.50;;;;;4.04;58.93;102608.44;5113524;27;49792;-64
2022/02/28 02:22:22;;;;;;;;;26.75;19.25;;;;;4.02;59.42;102607.44;5112886;27;49854;-63
2022/02/28 02:24:48;;;;;;;;;25.75;23.00;;;;;3.90;59.74;102588.31;5113227;27;49845;-64
2022/02/28 02:27:14;;;;;;;;;22.00;20.00;;;;;3.99;59.67;102605.50;5075443;27;49844;-66
2022/02/28 02:29:40;;;;;;;;;24.00;18.00;;;;;3.74;59.45;102562.84;5112591;27;50018;-63
2022/02/28 02:32:08;;;;;;;;;19.50;18.75;;;;;3.97;59.76;102601.00;5112637;27;49925;-63
2022/02/28 02:34:33;;;;;;;;;16.75;16.75;;;;;3.96;59.32;102605.28;5112971;27;50027;-63
2022/02/28 02:36:58;;;;;;;;;19.00;15.00;;;;;3.74;59.01;102558.56;5113015;27;49648;-65
2022/02/28 02:39:24;;;;;;;;;18.50;18.00;;;;;3.89;58.81;102600.41;5112801;27;49675;-62
2022/02/28 02:41:49;;;;;;;;;25.25;24.00;;;;;3.83;58.14;102596.41;5112505;27;53913;-62
2022/02/28 02:44:14;;;;;;;;;25.00;25.00;;;;;3.33;58.41;102520.69;5112783;27;49641;-62
2022/02/28 02:46:45;;;;;;;;;26.25;22.00;;;;;3.74;59.76;102601.81;5112819;27;49724;-62
2022/02/28 02:49:10;;;;;;;;;18.75;17.75;;;;;3.70;59.86;102589.38;5112131;27;49684;-62
2022/02/28 02:51:35;;;;;;;;;22.00;20.25;;;;;3.63;59.82;102588.00;5112297;27;50267;-62
2022/02/28 02:54:01;;;;;;;;;26.25;21.00;;;;;3.51;59.67;102567.97;5112438;27;49692;-63
2022/02/28 02:56:26;;;;;;;;;23.25;20.50;;;;;3.78;59.70;102601.28;5112687;27;49838;-62
2022/02/28 02:58:51;;;;;;;;;22.00;22.00;;;;;3.77;60.62;102602.06;5112764;27;49737;-63
2022/02/28 03:01:17;;;;;;;;;20.75;20.75;;;;;3.71;59.75;102594.69;5112341;27;50405;-63
2022/02/28 03:03:42;;;;;;;;;17.25;15.75;;;;;3.74;60.47;102609.59;5080596;27;49720;-64
2022/02/28 03:06:07;;;;;;;;;14.50;11.75;;;;;3.60;59.87;102589.47;5112442;27;49636;-63
2022/02/28 03:08:33;;;;;;;;;22.75;19.25;;;;;3.68;59.56;102610.03;5112725;27;50598;-63
2022/02/28 03:10:59;;;;;;;;;17.25;14.00;;;;;3.67;59.23;102607.34;5112283;27;49754;-63
2022/02/28 03:13:24;;;;;;;;;20.00;17.50;;;;;3.63;59.90;102610.47;5112272;27;49614;-63
2022/02/28 03:15:49;;;;;;;;;25.00;19.75;;;;;3.54;60.01;102610.63;5112431;27;49590;-65
2022/02/28 03:18:15;;;;;;;;;18.00;15.00;;;;;3.35;60.71;102571.94;5105787;27;50032;-64
2022/02/28 03:20:40;;;;;;;;;18.75;12.00;;;;;3.43;60.44;102589.03;5112086;27;49822;-63
2022/02/28 03:23:06;;;;;;;;;17.00;15.75;;;;;3.46;60.01;102596.16;5112129;27;49873;-63
2022/02/28 03:25:31;;;;;;;;;18.00;16.75;;;;;3.51;60.06;102600.03;5112132;27;49698;-63
2022/02/28 03:27:56;;;;;;;;;26.25;22.00;;;;;3.04;60.59;102521.91;5112161;27;49951;-63
2022/02/28 03:30:22;;;;;;;;;26.75;22.25;;;;;3.47;60.80;102602.25;5111929;27;50547;-62
2022/02/28 03:32:47;;;;;;;;;20.50;19.50;;;;;3.41;60.90;102600.09;5111687;27;49872;-63
2022/02/28 03:35:12;;;;;;;;;22.75;21.75;;;;;3.22;60.66;102565.69;5112069;27;49954;-63
2022/02/28 03:37:38;;;;;;;;;24.25;19.00;;;;;3.24;61.55;102575.38;5111942;27;49728;-63
2022/02/28 03:40:04;;;;;;;;;23.00;19.00;;;;;3.24;61.08;102577.09;5111669;27;50042;-63
2022/02/28 03:42:29;;;;;;;;;18.75;17.00;;;;;3.32;61.63;102607.16;5111228;27;49856;-62
2022/02/28 03:44:55;;;;;;;;;18.50;18.50;;;;;3.12;61.34;102562.34;5111845;27;49661;-62
2022/02/28 03:47:20;;;;;;;;;16.50;15.75;;;;;3.01;61.23;102547.63;5111848;27;50181;-62
2022/02/28 03:49:46;;;;;;;;;22.00;21.00;;;;;2.88;61.27;102521.47;5111562;27;50378;-62
2022/02/28 03:52:11;;;;;;;;;22.50;21.00;;;;;3.11;61.37;102568.34;5111340;27;49848;-62
2022/02/28 03:54:36;;;;;;;;;22.75;17.50;;;;;2.97;61.27;102555.94;5111703;27;49656;-63
2022/02/28 03:57:02;;;;;;;;;25.50;21.75;;;;;3.00;61.99;102565.69;5111887;27;49679;-63
2022/02/28 03:59:27;;;;;;;;;30.50;20.75;;;;;3.01;61.23;102578.75;5111530;27;50459;-63
2022/02/28 04:01:52;;;;;;;;;16.75;16.75;;;;;3.05;61.39;102598.97;5111313;27;49834;-62
2022/02/28 04:04:18;;;;;;;;;27.00;18.25;;;;;3.06;61.92;102586.91;5111658;27;49890;-64
2022/02/28 04:06:46;;;;;;;;;18.50;16.00;;;;;2.96;62.08;102576.56;5111629;27;49686;-62
2022/02/28 04:09:12;;;;;;;;;21.00;19.50;;;;;3.01;62.81;102588.25;5091299;27;49767;-62
2022/02/28 04:11:38;;;;;;;;;22.00;20.50;;;;;2.74;62.00;102554.09;5091449;27;49779;-62
2022/02/28 04:14:03;;;;;;;;;26.50;20.75;;;;;2.87;61.88;102582.81;5091730;27;49819;-63
2022/02/28 04:16:28;;;;;;;;;18.50;14.50;;;;;2.83;62.39;102569.50;5091679;27;50221;-62
2022/02/28 04:18:54;;;;;;;;;17.75;17.75;;;;;2.97;61.79;102593.94;5091387;27;49795;-62
2022/02/28 04:21:19;;;;;;;;;18.25;18.25;;;;;2.73;62.49;102566.94;5101075;27;49958;-62
2022/02/28 04:23:46;;;;;;;;;18.25;17.75;;;;;2.93;62.71;102610.97;5104078;27;50069;-63
2022/02/28 04:26:11;;;;;;;;;22.50;20.00;;;;;2.92;63.01;102608.25;5111309;27;49674;-63
2022/02/28 04:28:37;;;;;;;;;22.50;17.50;;;;;2.87;62.32;102598.38;5081895;27;51868;-62
2022/02/28 04:31:02;;;;;;;;;19.00;17.50;;;;;2.85;63.48;102606.84;5108332;27;49783;-63
2022/02/28 04:33:27;;;;;;;;;17.50;17.00;;;;;2.80;62.79;102597.78;5110672;27;49914;-63
2022/02/28 04:35:53;;;;;;;;;18.25;16.00;;;;;2.84;62.57;102613.72;5110951;27;49978;-63
2022/02/28 04:38:20;;;;;;;;;20.75;19.00;;;;;2.77;63.48;102602.72;5110829;27;50103;-63
2022/02/28 04:40:46;;;;;;;;;25.25;20.25;;;;;2.57;63.13;102563.09;5093282;27;49681;-63
2022/02/28 04:43:11;;;;;;;;;29.25;25.50;;;;;2.38;62.96;102527.78;5091247;27;49962;-63
2022/02/28 04:45:37;;;;;;;;;22.50;18.75;;;;;2.38;63.67;102538.16;5091276;27;49985;-63
2022/02/28 04:48:02;;;;;;;;;27.75;20.75;;;;;2.79;63.26;102602.03;5090538;27;49812;-64
2022/02/28 04:50:27;;;;;;;;;19.25;18.75;;;;;2.51;62.81;102562.63;5090975;27;49802;-63
2022/02/28 04:52:53;;;;;;;;;21.75;17.50;;;;;2.76;63.33;102600.91;5090646;27;50060;-63
2022/02/28 04:55:22;;;;;;;;;17.75;16.50;;;;;2.55;63.71;102563.75;5091270;27;50109;-63
2022/02/28 04:57:47;;;;;;;;;27.50;22.75;;;;;2.53;63.01;102580.88;5090795;27;50678;-63
2022/02/28 05:00:13;;;;;;;;;28.00;24.50;;;;;2.69;62.69;102603.75;5090142;27;49776;-63
2022/02/28 05:02:39;;;;;;;;;20.25;15.25;;;;;2.44;62.81;102577.53;5090610;27;49965;-64
2022/02/28 05:05:05;;;;;;;;;22.00;19.75;;;;;2.71;63.28;102612.59;5090943;27;49721;-63
2022/02/28 05:07:30;;;;;;;;;19.00;16.25;;;;;2.65;63.92;102601.72;5090488;27;50588;-63
2022/02/28 05:09:57;;;;;;;;;21.75;18.50;;;;;2.50;63.83;102583.22;5090825;27;49716;-63
2022/02/28 05:12:23;;;;;;;;;24.25;19.25;;;;;2.71;62.73;102620.38;5090758;27;49756;-62
2022/02/28 05:14:49;;;;;;;;;21.75;19.25;;;;;2.54;63.01;102599.16;5090354;27;49657;-63
2022/02/28 05:17:14;;;;;;;;;18.25;18.25;;;;;2.55;63.38;102600.97;5095561;27;49899;-63
2022/02/28 05:19:39;;;;;;;;;25.50;22.50;;;;;2.63;62.55;102611.06;5090486;27;49762;-63
2022/02/28 05:22:05;;;;;;;;;22.25;18.25;;;;;2.67;63.54;102626.09;5090652;27;49854;-62
2022/02/28 05:24:32;;;;;;;;;28.00;22.00;;;;;2.59;62.77;102623.75;5090915;27;50021;-63
2022/02/28 05:26:57;;;;;;;;;23.75;20.00;;;;;2.69;63.68;102646.16;5090131;27;50679;-63
2022/02/28 05:29:22;;;;;;;;;25.25;21.75;;;;;2.69;63.09;102647.84;5100419;27;49749;-63
2022/02/28 05:31:48;;;;;;;;;19.25;19.25;;;;;2.69;64.14;102642.66;5109910;27;49784;-64
2022/02/28 05:34:13;;;;;;;;;22.00;18.50;;;;;2.66;63.95;102647.59;5109361;27;49982;-64
2022/02/28 05:36:38;;;;;;;;;28.75;21.50;;;;;2.30;63.07;102585.06;5111870;27;49871;-64
2022/02/28 05:39:04;;;;;;;;;23.25;19.50;;;;;2.59;63.54;102644.50;5098313;27;49939;-64
2022/02/28 05:41:30;;;;;;;;;20.25;19.00;;;;;2.54;63.98;102643.22;5097092;27;49964;-65
2022/02/28 05:43:55;;;;;;;;;28.75;24.50;;;;;2.53;64.35;102650.88;5104303;27;49810;-63
2022/02/28 05:46:20;;;;;;;;;29.75;22.00;;;;;2.09;64.18;102580.69;5109385;27;50228;-67
2022/02/28 05:48:46;;;;;;;;;26.50;24.50;;;;;2.43;64.69;102636.25;5099336;27;49858;-63
2022/02/28 05:51:11;;;;;;;;;22.75;21.25;;;;;2.49;64.04;102648.78;5104333;27;49840;-64
2022/02/28 05:53:37;;;;;;;;;29.25;22.00;;;;;2.46;64.25;102646.88;5111994;27;49892;-63
2022/02/28 05:56:02;;;;;;;;;28.50;22.50;;;;;2.44;64.22;102650.13;5099906;27;49740;-66
2022/02/28 05:58:27;;;;;;;;;21.25;17.25;;;;;2.39;64.33;102643.63;5092464;27;49879;-63
2022/02/28 06:00:53;;;;;;;;;26.50;22.00;;;;;2.39;63.92;102659.19;5094185;27;49695;-63
2022/02/28 06:03:19;;;;;;;;;25.50;19.25;;;;;2.00;64.32;102592.88;5093429;27;50351;-64
2022/02/28 06:05:44;;;;;;;;;27.75;25.00;;;;;2.37;64.86;102658.16;5093403;27;50192;-65
2022/02/28 06:08:09;;;;;;;;;34.00;27.75;;;;;2.18;64.29;102633.28;5093520;27;49830;-63
2022/02/28 06:10:35;;;;;;;;;36.50;25.00;;;;;2.13;64.47;102621.66;5093564;27;49831;-64
2022/02/28 06:13:00;;;;;;;;;28.50;27.25;;;;;2.20;64.73;102634.31;5095261;27;49908;-63
2022/02/28 06:15:25;;;;;;;;;31.75;26.25;;;;;2.24;64.87;102653.63;5093416;27;50357;-62
2022/02/28 06:17:51;;;;;;;;;30.00;28.75;;;;;2.28;64.14;102666.97;5093018;27;49641;-63
2022/02/28 06:20:16;;;;;;;;;31.75;27.50;;;;;2.19;65.12;102658.41;5093230;27;49728;-63
2022/02/28 06:22:44;;;;;;;;;33.50;24.75;;;;;2.13;64.16;102649.25;5093517;27;49571;-64
2022/02/28 06:25:09;;;;;;;;;30.50;23.75;;;;;2.05;64.61;102646.00;5092142;27;49707;-64
2022/02/28 06:27:34;;;;;;;;;28.00;25.25;;;;;2.17;65.33;102657.38;5093191;27;49703;-65
2022/02/28 06:30:00;;;;;;;;;28.75;27.50;;;;;1.96;65.47;102619.31;5093213;27;49569;-63
2022/02/28 06:32:25;;;;;;;;;36.50;31.00;;;;;2.14;65.94;102658.81;5092950;27;49697;-63
2022/02/28 06:34:51;;;;;;;;;34.00;29.75;;;;;1.93;65.17;102619.03;5093021;27;49704;-65
2022/02/28 06:37:16;;;;;;;;;40.00;34.50;;;;;1.96;64.93;102624.47;5092983;27;49794;-65
2022/02/28 06:39:42;;;;;;;;;31.00;26.00;;;;;2.20;65.02;102667.09;5087869;27;49932;-64
2022/02/28 06:42:09;;;;;;;;;26.50;26.50;;;;;2.08;65.56;102653.09;5093216;27;50045;-63
2022/02/28 06:44:35;;;;;;;;;31.75;26.25;;;;;1.96;65.19;102619.31;5106061;27;50043;-65
2022/02/28 06:47:00;;;;;;;;;26.75;24.75;;;;;1.85;64.92;102592.50;5112624;27;49758;-64
2022/02/28 06:49:25;;;;;;;;;27.50;25.00;;;;;2.26;64.96;102663.34;5100678;27;49872;-63
2022/02/28 06:51:51;;;;;;;;;34.75;26.75;;;;;2.07;64.71;102634.06;5092767;27;49783;-63
2022/02/28 06:54:16;;;;;;;;;25.75;25.25;;;;;2.00;64.58;102617.09;5092682;27;49855;-63
2022/02/28 06:56:43;;;;;;;;;26.25;21.00;;;;;2.19;64.78;102650.63;5092815;27;49700;-65
2022/02/28 06:59:08;;;;;;;;;28.75;26.00;;;;;1.86;64.35;102589.13;5092840;27;49824;-63
2022/02/28 07:01:36;;;;;;;;;24.50;22.75;;;;;2.26;64.89;102668.53;5092540;27;50109;-63
2022/02/28 07:04:02;;;;;;;;;28.25;21.25;;;;;2.17;64.75;102659.06;5092532;27;50921;-61
2022/02/28 07:06:28;;;;;;;;;22.25;20.75;;;;;2.19;63.97;102673.97;5098652;27;49963;-63
2022/02/28 07:08:54;;;;;;;;;32.00;26.00;;;;;2.29;64.33;102680.81;5096914;27;49597;-65
2022/02/28 07:11:19;;;;;;;;;20.75;20.50;;;;;2.07;64.18;102636.66;5097489;27;50035;-62
2022/02/28 07:13:46;;;;;;;;;28.00;23.75;;;;;2.35;64.31;102680.44;5102059;27;50042;-63
2022/02/28 07:16:14;;;;;;;;;31.25;25.75;;;;;2.38;63.67;102680.69;5102687;27;49760;-63
2022/02/28 07:18:39;;;;;;;;;25.50;22.25;;;;;2.20;63.93;102655.03;5100682;27;49756;-62
2022/02/28 07:21:04;;;;;;;;;25.50;22.25;;;;;2.45;64.42;102691.72;5095137;27;49887;-63
2022/02/28 07:23:30;;;;;;;;;22.75;20.25;;;;;2.16;63.72;102634.84;5105400;27;49837;-62
2022/02/28 07:25:56;;;;;;;;;31.75;25.25;;;;;2.27;63.83;102656.47;5092907;27;49704;-63
2022/02/28 07:28:21;;;;;;;;;30.00;25.00;;;;;2.58;64.40;102693.63;5093242;27;49741;-62
2022/02/28 07:30:47;;;;;;;;;21.50;20.50;;;;;2.42;64.39;102660.38;5095152;27;50084;-68
2022/02/28 07:33:12;;;;;;;;;34.50;30.00;;;;;2.66;63.77;102691.69;5091798;27;49810;-74
2022/02/28 07:35:38;;;;;;;;;32.00;24.75;;;;;2.65;64.56;102689.88;5092181;27;49845;-67
2022/02/28 07:38:03;;;;;;;;;39.75;26.25;;;;;2.61;63.69;102691.31;5092296;27;49750;-68
2022/02/28 07:40:29;;;;;;;;;27.75;19.25;;;;;2.55;63.37;102675.25;5092280;27;49733;-67
2022/02/28 07:42:55;;;;;;;;;28.25;25.25;;;;;2.66;63.52;102676.13;5091579;27;50509;-64
2022/02/28 07:45:23;;;;;;;;;30.50;22.00;;;;;2.84;62.50;102704.50;5091998;27;49777;-65
2022/02/28 07:47:49;;;;;;;;;24.25;21.50;;;;;2.92;63.33;102704.22;5091800;27;49683;-65
2022/02/28 07:50:14;;;;;;;;;26.00;24.25;;;;;2.86;62.20;102699.44;5092144;27;49744;-65
2022/02/28 07:52:40;;;;;;;;;28.75;24.00;;;;;2.99;62.01;102709.13;5091379;27;49735;-65
2022/02/28 07:55:06;;;;;;;;;26.75;25.00;;;;;3.06;61.85;102696.78;5092024;27;49667;-65
2022/02/28 07:57:32;;;;;;;;;22.75;19.25;;;;;3.06;61.49;102678.63;5090220;27;49953;-64
2022/02/28 07:59:57;;;;;;;;;32.25;26.25;;;;;3.10;61.96;102679.81;5092226;27;49579;-63
2022/02/28 08:02:24;;;;;;;;;23.25;22.25;;;;;3.24;62.92;102687.00;5091368;27;50518;-64
2022/02/28 08:04:50;;;;;;;;;27.50;23.50;;;;;2.91;61.76;102615.13;5092692;27;49761;-65
2022/02/28 08:07:16;;;;;;;;;30.50;25.25;;;;;3.32;60.84;102680.75;5073295;27;49857;-66
2022/02/28 08:09:41;;;;;;;;;26.25;24.25;;;;;3.44;63.20;102678.22;5091824;27;49757;-65
2022/02/28 08:12:07;;;;;;;;;28.75;23.50;;;;;2.79;60.96;102554.44;5091386;27;50556;-64
2022/02/28 08:14:32;;;;;;;;;29.50;24.00;;;;;3.53;59.96;102688.44;5091551;27;50590;-62
2022/02/28 08:16:57;;;;;;;;;22.25;19.50;;;;;3.51;60.62;102677.03;5091333;27;50317;-65
2022/02/28 08:19:23;;;;;;;;;26.50;24.50;;;;;3.62;59.67;102682.28;5091743;27;49897;-67
2022/02/28 08:21:48;;;;;;;;;29.25;28.25;;;;;3.57;59.16;102659.31;5091346;27;50392;-67
2022/02/28 08:24:13;;;;;;;;;34.50;29.50;;;;;3.76;59.79;102669.47;5091549;27;49738;-70
2022/02/28 08:26:39;;;;;;;;;32.75;27.25;;;;;3.82;59.23;102670.84;5091552;27;49966;-67
2022/02/28 08:29:04;;;;;;;;;26.25;20.25;;;;;3.66;58.37;102631.47;5091499;27;49696;-67
2022/02/28 08:31:30;;;;;;;;;29.25;25.25;;;;;4.04;57.17;102673.41;5090887;27;49845;-67
2022/02/28 08:33:55;;;;;;;;;26.25;21.75;;;;;4.01;58.30;102653.31;5091152;27;49688;-66
2022/02/28 08:36:21;;;;;;;;;15.25;13.00;;;;;4.28;57.09;102671.81;5091274;27;49795;-67
2022/02/28 08:38:46;;;;;;;;;21.75;18.50;;;;;2.91;55.34;102435.22;5091350;27;49743;-67
2022/02/28 08:41:12;;;;;;;;;26.25;18.50;;;;;3.19;55.37;102472.94;5091073;27;50796;-66
2022/02/28 08:43:37;;;;;;;;;21.50;17.00;;;;;4.36;55.09;102651.63;5090938;27;49595;-68
2022/02/28 08:46:04;;;;;;;;;20.25;17.75;;;;;3.58;54.78;102515.72;5091337;27;49673;-67
2022/02/28 08:48:29;;;;;;;;;22.25;15.00;;;;;3.59;53.72;102496.75;5091037;27;49874;-69
2022/02/28 08:50:56;;;;;;;;;15.25;14.75;;;;;4.77;54.53;102668.63;5090998;27;50597;-70
2022/02/28 08:53:21;;;;;;;;;15.50;15.50;;;;;3.29;53.37;102412.25;5091832;27;49869;-73
2022/02/28 08:55:46;;;;;;;;;21.25;20.25;;;;;4.56;51.97;102605.50;5090994;27;49992;-75
2022/02/28 08:58:12;;;;;;;;;19.75;14.25;;;;;4.01;53.36;102512.97;5091242;27;49885;-72
2022/02/28 09:00:38;;;;;;;;;20.00;20.00;;;;;4.29;52.97;102525.44;5091199;27;50589;-77
2022/02/28 09:03:07;;;;;;;;;22.50;18.75;;;;;3.00;52.25;102286.38;5076566;27;49963;-78
2022/02/28 09:05:39;;;;;;;;;18.50;17.25;;;;;3.94;52.93;102437.94;5087446;27;49883;-84
2022/02/28 09:08:05;;;;;;;;;25.75;22.25;;;;;4.74;53.65;102556.53;5076918;27;49958;-78
2022/02/28 09:10:31;;;;;;;;;19.75;16.50;;;;;5.39;52.00;102672.28;5111793;27;49742;-76
2022/02/28 09:12:57;;;;;;;;;22.75;20.25;;;;;5.47;52.10;102668.56;5115002;27;49772;-77
2022/02/28 09:15:22;;;;;;;;;20.50;19.50;;;;;5.56;51.39;102664.78;5085727;27;49826;-75
2022/02/28 09:17:48;;;;;;;;;23.25;20.00;;;;;5.54;50.82;102650.75;5106581;27;49540;-73
2022/02/28 09:20:13;;;;;;;;;28.25;21.75;;;;;5.67;52.07;102675.19;5094023;27;50353;-71
2022/02/28 09:22:39;;;;;;;;;19.50;17.00;;;;;5.51;52.48;102638.44;5094190;27;49678;-70
2022/02/28 09:25:05;;;;;;;;;20.25;17.75;;;;;5.73;52.32;102665.19;5094296;27;50037;-71
2022/02/28 09:27:31;;;;;;;;;20.25;16.50;;;;;5.80;51.19;102676.06;5094371;27;49912;-71
2022/02/28 09:29:56;;;;;;;;;24.75;19.75;;;;;5.88;50.43;102686.22;5092635;27;49813;-72
2022/02/28 09:32:22;;;;;;;;;25.00;19.75;;;;;5.80;50.51;102674.38;5093135;27;49689;-71
2022/02/28 09:34:48;;;;;;;;;26.25;22.00;;;;;5.92;50.17;102696.09;5093845;27;49804;-70
2022/02/28 09:37:13;;;;;;;;;23.50;22.75;;;;;5.92;50.03;102696.09;5094080;27;49676;-72
2022/02/28 09:39:38;;;;;;;;;30.00;24.00;;;;;5.73;49.62;102657.38;5100336;27;49648;-72
2022/02/28 09:42:04;;;;;;;;;21.75;18.25;;;;;5.90;50.19;102669.03;5094045;27;49673;-71
2022/02/28 09:44:31;;;;;;;;;23.25;21.50;;;;;5.95;50.23;102664.13;5093965;27;49825;-71
2022/02/28 09:46:58;;;;;;;;;22.25;22.25;;;;;5.99;49.56;102658.34;5094067;27;49858;-72
2022/02/28 09:49:23;;;;;;;;;22.25;18.25;;;;;6.24;49.77;102687.00;5093555;27;50518;-72
2022/02/28 09:51:49;;;;;;;;;21.75;19.00;;;;;6.09;49.67;102652.06;5093609;27;49682;-72
2022/02/28 09:54:15;;;;;;;;;22.00;21.00;;;;;6.35;49.72;102687.72;5093763;27;49771;-71
2022/02/28 09:56:40;;;;;;;;;22.75;18.00;;;;;5.95;49.88;102609.38;5093919;27;49823;-72
2022/02/28 09:59:05;;;;;;;;;23.75;22.25;;;;;6.42;48.87;102669.09;5093535;27;50506;-70
2022/02/28 10:01:31;;;;;;;;;22.75;19.25;;;;;6.42;48.24;102672.63;5075453;27;49993;-71
2022/02/28 10:03:56;;;;;;;;;33.75;23.75;;;;;6.47;48.74;102670.34;5093324;27;50090;-71
2022/02/28 10:06:22;;;;;;;;;22.50;21.00;;;;;6.17;48.75;102619.56;5094006;27;49921;-71
2022/02/28 10:08:50;;;;;;;;;27.00;22.75;;;;;6.59;48.43;102673.75;5093313;27;49840;-71
2022/02/28 10:11:26;;;;;;;;;20.50;19.00;;;;;6.76;48.25;102686.25;5093462;27;49767;-72
2022/02/28 10:13:54;;;;;;;;;23.50;23.50;;;;;6.51;49.20;102631.50;5093422;27;49723;-71
2022/02/28 10:16:34;;;;;;;;;20.50;19.75;;;;;6.49;49.16;102616.53;5093555;27;49632;-72
2022/02/28 10:19:01;;;;;;;;;30.75;23.25;;;;;6.97;48.90;102706.75;5093346;27;49889;-71
2022/02/28 10:21:37;;;;;;;;;26.00;22.25;;;;;6.60;47.92;102629.50;5092640;27;49804;-72
2022/02/28 10:24:02;;;;;;;;;20.75;19.00;;;;;6.97;47.91;102689.38;5093464;27;49695;-71
2022/02/28 10:26:36;;;;;;;;;24.00;21.50;;;;;6.93;47.95;102682.13;5093556;27;49965;-71
2022/02/28 10:29:10;;;;;;;;;26.25;21.00;;;;;6.98;48.05;102675.50;5106840;27;50008;-71
2022/02/28 10:31:41;;;;;;;;;22.00;22.00;;;;;7.18;49.10;102702.91;5112829;27;49649;-71
2022/02/28 10:34:27;;;;;;;;;23.25;18.25;;;;;6.88;49.82;102633.94;5112787;27;49752;-71
2022/02/28 10:36:58;;;;;;;;;24.00;21.75;;;;;7.33;47.21;102696.06;5113046;27;49845;-71
2022/02/28 10:39:26;;;;;;;;;25.00;17.75;;;;;7.29;47.98;102677.50;5112882;27;50580;-71
2022/02/28 10:41:55;;;;;;;;;21.00;18.50;;;;;7.46;47.25;102693.44;5112553;27;49848;-71
2022/02/28 10:44:21;;;;;;;;;21.50;19.25;;;;;7.49;46.36;102687.50;5112810;27;49734;-72
2022/02/28 10:46:48;;;;;;;;;21.50;20.25;;;;;7.57;46.51;102682.78;5112852;27;49605;-72
2022/02/28 10:49:20;;;;;;;;;24.00;20.00;;;;;7.48;46.30;102659.56;5112404;27;50311;-70
2022/02/28 10:51:59;;;;;;;;;19.25;18.75;;;;;7.28;45.09;102633.88;5112402;27;49822;-70
2022/02/28 10:54:28;;;;;;;;;22.75;20.75;;;;;7.46;45.84;102656.88;5113058;27;49980;-72
2022/02/28 10:56:57;;;;;;;;;22.00;22.00;;;;;7.73;45.14;102701.25;5112681;27;49802;-72
2022/02/28 10:59:26;;;;;;;;;19.00;18.50;;;;;7.77;45.50;102711.06;5105835;27;50610;-71
2022/02/28 11:01:52;;;;;;;;;22.75;22.75;;;;;7.80;46.67;102700.81;5112689;27;49709;-71
2022/02/28 11:04:32;;;;;;;;;23.75;18.25;;;;;7.84;47.07;102696.69;5099230;27;49810;-73
2022/02/28 11:06:58;;;;;;;;;19.25;16.50;;;;;7.88;46.17;102693.44;5092839;27;49691;-71
2022/02/28 11:09:31;;;;;;;;;17.00;15.25;;;;;7.70;44.89;102657.50;5096304;27;50133;-71
2022/02/28 11:12:26;;;;;;;;;25.00;23.50;;;;;7.57;45.10;102620.94;5093023;27;49940;-73